Time;durP1;ratioP1;P1;durP2;ratioP2;P2;SDS_P1;SDS_P2;PMS_P1;PMS_P2;Temp;Humidity;BMP_temperature;BMP_pressure;BME280_temperature;BME280_humidity;BME280_pressure;Samples;Min_cycle;Max_cycle;Signal;HPM_P1;HPM_P2
2022/03/04 01:36:10;;;;;;;;;;;4.40;1.00;;;;;;5131030;27;19965;-72
2022/03/04 01:38:36;;;;;;;;;;;4.40;1.00;;;;;;5112281;28;19980;-72
2022/03/04 01:41:01;;;;;;;;;;;4.40;1.00;;;;;;5129972;28;19908;-69
2022/03/04 01:43:27;;;;;;;;;;;4.40;1.00;;;;;;5128341;28;19918;-69
2022/03/04 01:45:52;;;;;;;;;;;4.40;1.00;;;;;;5118472;28;19911;-69
2022/03/04 01:48:19;;;;;;;;;;;4.40;1.00;;;;;;5110221;28;20283;-69
2022/03/04 01:50:47;;;;;;;;;;;4.30;1.00;;;;;;5109288;28;19914;-70
2022/03/04 01:53:12;;;;;;;;;;;4.30;1.00;;;;;;5109938;28;19912;-69
2022/03/04 01:55:38;;;;;;;;;;;4.30;1.00;;;;;;5109820;28;20478;-69
2022/03/04 01:58:03;;;;;;;;;;;4.40;1.00;;;;;;5109148;28;19908;-69
2022/03/04 02:00:29;;;;;;;;;;;4.40;1.00;;;;;;5109759;28;19907;-69
2022/03/04 02:02:57;;;;;;;;;;;4.30;1.00;;;;;;5090792;28;20268;-70
2022/03/04 02:05:22;;;;;;;;;;;4.20;1.00;;;;;;5110157;28;19920;-69
2022/03/04 02:07:48;;;;;;;;;;;4.20;1.00;;;;;;5108904;28;20303;-69
2022/03/04 02:10:13;;;;;;;;;;;4.20;1.00;;;;;;5091399;28;20348;-69
2022/03/04 02:12:39;;;;;;;;;;;4.10;1.00;;;;;;5109634;28;19908;-69
2022/03/04 02:15:05;;;;;;;;;;;4.10;1.00;;;;;;5108685;28;19912;-69
2022/03/04 02:17:31;;;;;;;;;;;4.10;1.00;;;;;;5109448;28;19908;-69
2022/03/04 02:19:57;;;;;;;;;;;4.10;1.00;;;;;;5108683;28;19915;-69
2022/03/04 02:22:22;;;;;;;;;;;4.00;1.00;;;;;;5109378;28;20287;-69
2022/03/04 02:24:48;;;;;;;;;;;3.90;1.00;;;;;;5108585;28;19958;-70
2022/03/04 02:27:13;;;;;;;;;;;3.90;1.00;;;;;;5109343;28;19908;-69
2022/03/04 02:29:39;;;;;;;;;;;3.80;1.00;;;;;;5109276;28;20387;-69
2022/03/04 02:32:05;;;;;;;;;;;3.80;1.00;;;;;;5090267;28;19904;-69
2022/03/04 02:34:30;;;;;;;;;;;3.80;1.00;;;;;;5108911;28;19928;-69
2022/03/04 02:36:57;;;;;;;;;;;3.70;1.00;;;;;;5108327;28;19908;-69
2022/03/04 02:39:22;;;;;;;;;;;3.80;1.00;;;;;;5090878;28;19935;-70
2022/03/04 02:41:48;;;;;;;;;;;3.70;1.00;;;;;;5108310;28;19909;-70
2022/03/04 02:44:14;;;;;;;;;;;3.70;1.00;;;;;;5109090;28;19915;-70
2022/03/04 02:46:40;;;;;;;;;;;3.60;1.00;;;;;;5098290;28;19934;-70
2022/03/04 02:49:06;;;;;;;;;;;3.60;1.00;;;;;;5094422;28;19965;-69
2022/03/04 02:51:32;;;;;;;;;;;3.50;1.00;;;;;;5095277;28;20403;-70
2022/03/04 02:53:57;;;;;;;;;;;3.40;1.00;;;;;;5094392;28;19913;-70
2022/03/04 02:56:23;;;;;;;;;;;3.50;1.00;;;;;;5095204;28;19908;-70
2022/03/04 02:58:49;;;;;;;;;;;;;;;;;;5094370;28;19908;-71
2022/03/04 03:01:15;;;;;;;;;;;3.40;1.00;;;;;;5076870;28;19999;-70
2022/03/04 03:03:40;;;;;;;;;;;3.40;1.00;;;;;;5076804;28;20275;-69
2022/03/04 03:06:06;;;;;;;;;;;3.40;1.00;;;;;;5094235;28;20561;-69
2022/03/04 03:08:32;;;;;;;;;;;3.40;1.00;;;;;;5095031;28;19919;-69
2022/03/04 03:10:57;;;;;;;;;;;3.40;1.00;;;;;;5094131;28;20004;-69
2022/03/04 03:13:23;;;;;;;;;;;3.40;1.00;;;;;;5094956;28;19951;-69
2022/03/04 03:15:49;;;;;;;;;;;;;;;;;;5094033;28;19934;-74
2022/03/04 03:18:15;;;;;;;;;;;3.30;1.00;;;;;;5094781;28;19934;-69
2022/03/04 03:20:40;;;;;;;;;;;3.30;1.00;;;;;;5076979;28;20014;-69
2022/03/04 03:23:06;;;;;;;;;;;3.30;1.00;;;;;;5075779;28;20364;-69
2022/03/04 03:25:32;;;;;;;;;;;;;;;;;;5094621;28;20356;-70
2022/03/04 03:27:57;;;;;;;;;;;3.20;1.00;;;;;;5093816;28;20407;-69
2022/03/04 03:30:23;;;;;;;;;;;3.10;1.00;;;;;;5094562;28;19908;-69
2022/03/04 03:32:49;;;;;;;;;;;;;;;;;;5094017;28;19964;-75
2022/03/04 03:35:14;;;;;;;;;;;3.10;1.00;;;;;;5075845;28;19950;-69
2022/03/04 03:37:40;;;;;;;;;;;3.10;1.00;;;;;;5076279;28;19973;-69
2022/03/04 03:40:08;;;;;;;;;;;3.00;1.00;;;;;;5093574;28;19938;-69
2022/03/04 03:42:34;;;;;;;;;;;3.00;1.00;;;;;;5094294;28;19908;-69
2022/03/04 03:45:00;;;;;;;;;;;2.90;1.00;;;;;;5093440;28;19909;-69
2022/03/04 03:47:25;;;;;;;;;;;2.90;1.00;;;;;;5076025;28;20003;-69
2022/03/04 03:49:51;;;;;;;;;;;;;;;;;;5093479;28;20249;-75
2022/03/04 03:52:17;;;;;;;;;;;;;;;;;;5094152;28;19914;-70
2022/03/04 03:54:42;;;;;;;;;;;2.80;1.00;;;;;;5094071;28;19965;-69
2022/03/04 03:57:10;;;;;;;;;;;2.80;1.00;;;;;;5092486;28;19907;-69
2022/03/04 03:59:36;;;;;;;;;;;2.70;1.00;;;;;;5093802;28;19915;-70
2022/03/04 04:02:02;;;;;;;;;;;2.60;1.00;;;;;;5074891;28;19908;-70
2022/03/04 04:04:33;;;;;;;;;;;2.60;1.00;;;;;;5075677;28;20380;-70
2022/03/04 04:07:03;;;;;;;;;;;2.50;1.00;;;;;;5093156;28;19908;-70
2022/03/04 04:09:28;;;;;;;;;;;2.40;1.00;;;;;;5093785;28;19908;-70
2022/03/04 04:11:54;;;;;;;;;;;2.30;1.00;;;;;;5092988;28;19974;-69
2022/03/04 04:14:19;;;;;;;;;;;2.30;1.00;;;;;;5093594;28;19919;-69
2022/03/04 04:16:45;;;;;;;;;;;2.20;1.00;;;;;;5093638;28;19915;-69
2022/03/04 04:19:10;;;;;;;;;;;2.10;1.00;;;;;;5092860;28;20479;-70
2022/03/04 04:21:36;;;;;;;;;;;2.00;1.00;;;;;;5093618;28;19934;-69
2022/03/04 04:24:02;;;;;;;;;;;1.90;1.00;;;;;;5074581;28;19998;-70
2022/03/04 04:26:27;;;;;;;;;;;2.00;1.00;;;;;;5093462;28;20420;-70
2022/03/04 04:28:53;;;;;;;;;;;;;;;;;;5092865;28;19908;-74
2022/03/04 04:31:19;;;;;;;;;;;2.10;1.00;;;;;;5093406;28;19934;-69
2022/03/04 04:33:44;;;;;;;;;;;2.10;1.00;;;;;;5093044;28;20041;-69
2022/03/04 04:36:10;;;;;;;;;;;2.00;1.00;;;;;;5074410;28;19904;-70
2022/03/04 04:38:35;;;;;;;;;;;2.10;1.00;;;;;;5075041;28;19908;-69
2022/03/04 04:41:01;;;;;;;;;;;2.10;1.00;;;;;;5092446;28;19915;-70
2022/03/04 04:43:26;;;;;;;;;;;2.10;1.00;;;;;;5074967;28;20375;-69
2022/03/04 04:45:53;;;;;;;;;;;;;;;;;;5092763;28;20003;-75
2022/03/04 04:48:19;;;;;;;;;;;2.30;1.00;;;;;;5074767;28;19916;-69
2022/03/04 04:50:45;;;;;;;;;;;2.30;1.00;;;;;;5093264;28;19909;-69
2022/03/04 04:53:10;;;;;;;;;;;2.20;1.00;;;;;;5092217;28;20646;-69
2022/03/04 04:55:36;;;;;;;;;;;2.20;1.00;;;;;;5092920;28;19913;-69
2022/03/04 04:58:01;;;;;;;;;;;2.30;1.00;;;;;;5092146;28;20285;-69
2022/03/04 05:00:27;;;;;;;;;;;2.30;1.00;;;;;;5092847;28;19908;-69
2022/03/04 05:02:53;;;;;;;;;;;;;;;;;;5092513;28;20364;-75
2022/03/04 05:05:19;;;;;;;;;;;2.20;1.00;;;;;;5074493;28;19916;-69
2022/03/04 05:07:45;;;;;;;;;;;2.20;1.00;;;;;;5074555;28;19947;-69
2022/03/04 05:10:11;;;;;;;;;;;2.10;1.00;;;;;;5091734;28;19958;-69
2022/03/04 05:12:36;;;;;;;;;;;2.10;1.00;;;;;;5092753;28;19915;-69
2022/03/04 05:15:02;;;;;;;;;;;2.10;1.00;;;;;;5091841;28;19916;-69
2022/03/04 05:17:27;;;;;;;;;;;2.10;1.00;;;;;;5092628;28;19908;-69
2022/03/04 05:19:53;;;;;;;;;;;;;;;;;;5092411;28;19951;-76
2022/03/04 05:22:19;;;;;;;;;;;2.00;1.00;;;;;;5092040;28;20352;-69
2022/03/04 05:24:44;;;;;;;;;;;2.20;1.00;;;;;;5074484;28;19912;-69
2022/03/04 05:27:10;;;;;;;;;;;2.20;1.00;;;;;;5073646;28;19909;-69
2022/03/04 05:29:35;;;;;;;;;;;2.30;1.00;;;;;;5092545;28;19912;-69
2022/03/04 05:32:01;;;;;;;;;;;2.30;1.00;;;;;;5091735;28;19909;-70
2022/03/04 05:34:27;;;;;;;;;;;2.30;1.00;;;;;;5074070;28;20385;-69
2022/03/04 05:36:53;;;;;;;;;;;2.30;1.00;;;;;;5092421;28;20401;-69
2022/03/04 05:39:19;;;;;;;;;;;;;;;;;;5073633;28;19944;-69
2022/03/04 05:41:44;;;;;;;;;;;2.50;1.00;;;;;;5092467;28;19908;-69
2022/03/04 05:44:10;;;;;;;;;;;2.50;1.00;;;;;;5091595;28;19958;-70
2022/03/04 05:46:35;;;;;;;;;;;2.60;1.00;;;;;;5085957;28;20346;-69
2022/03/04 05:49:02;;;;;;;;;;;2.50;1.00;;;;;;5096759;28;20373;-69
2022/03/04 05:51:28;;;;;;;;;;;2.50;1.00;;;;;;5098231;28;19908;-69
2022/03/04 05:53:54;;;;;;;;;;;;;;;;;;5092228;28;20257;-69
2022/03/04 05:56:20;;;;;;;;;;;2.50;1.00;;;;;;5098778;28;19991;-70
2022/03/04 05:58:45;;;;;;;;;;;2.40;1.00;;;;;;5112604;28;20006;-70
2022/03/04 06:01:11;;;;;;;;;;;2.40;1.00;;;;;;5111828;28;19957;-70
2022/03/04 06:03:37;;;;;;;;;;;2.40;1.00;;;;;;5112508;28;20297;-70
2022/03/04 06:06:03;;;;;;;;;;;2.40;1.00;;;;;;5111710;28;19911;-69
2022/03/04 06:08:29;;;;;;;;;;;2.30;1.00;;;;;;5112559;28;19933;-69
2022/03/04 06:10:54;;;;;;;;;;;2.30;1.00;;;;;;5111235;28;19912;-71
2022/03/04 06:13:20;;;;;;;;;;;2.40;1.00;;;;;;5095806;28;19912;-70
2022/03/04 06:15:45;;;;;;;;;;;2.30;1.00;;;;;;5091985;28;19912;-69
2022/03/04 06:18:11;;;;;;;;;;;2.40;1.00;;;;;;5091255;28;19908;-67
2022/03/04 06:20:37;;;;;;;;;;;2.40;1.00;;;;;;5092601;28;19960;-67
2022/03/04 06:23:02;;;;;;;;;;;2.40;1.00;;;;;;5095105;28;19956;-67
2022/03/04 06:25:28;;;;;;;;;;;2.40;1.00;;;;;;5095904;28;20383;-67
2022/03/04 06:27:54;;;;;;;;;;;2.50;1.00;;;;;;5095789;28;19916;-67
2022/03/04 06:30:20;;;;;;;;;;;2.40;1.00;;;;;;5094910;28;19904;-65
2022/03/04 06:32:46;;;;;;;;;;;2.40;1.00;;;;;;5095855;28;19934;-66
2022/03/04 06:35:12;;;;;;;;;;;2.40;1.00;;;;;;5094671;28;20443;-67
2022/03/04 06:37:38;;;;;;;;;;;2.40;1.00;;;;;;5095837;28;19909;-65
2022/03/04 06:40:06;;;;;;;;;;;2.40;1.00;;;;;;5106001;28;19923;-66
2022/03/04 06:42:31;;;;;;;;;;;2.30;1.00;;;;;;5115939;28;19961;-66
2022/03/04 06:44:57;;;;;;;;;;;;;;;;;;5115828;28;19912;-69
2022/03/04 06:47:23;;;;;;;;;;;2.30;1.00;;;;;;5115257;28;19999;-67
2022/03/04 06:49:48;;;;;;;;;;;2.40;1.00;;;;;;5097458;28;20253;-66
2022/03/04 06:52:14;;;;;;;;;;;2.40;1.00;;;;;;5114896;28;19907;-66
2022/03/04 06:54:40;;;;;;;;;;;2.40;1.00;;;;;;5116367;28;19919;-68
2022/03/04 06:57:06;;;;;;;;;;;2.50;1.00;;;;;;5114818;28;19908;-69
2022/03/04 06:59:32;;;;;;;;;;;2.50;1.00;;;;;;5097285;28;19992;-67
2022/03/04 07:01:58;;;;;;;;;;;2.50;1.00;;;;;;5115554;28;19969;-67
2022/03/04 07:04:24;;;;;;;;;;;2.50;1.00;;;;;;5114833;28;19927;-67
2022/03/04 07:06:50;;;;;;;;;;;2.50;1.00;;;;;;5112522;28;20407;-67
2022/03/04 07:09:16;;;;;;;;;;;2.50;1.00;;;;;;5076102;28;19908;-67
2022/03/04 07:11:41;;;;;;;;;;;2.60;1.00;;;;;;5094882;28;19957;-67
2022/03/04 07:14:07;;;;;;;;;;;2.50;1.00;;;;;;5093902;28;20318;-68
2022/03/04 07:16:32;;;;;;;;;;;2.60;1.00;;;;;;5094791;28;19940;-67
2022/03/04 07:18:58;;;;;;;;;;;2.60;1.00;;;;;;5094832;28;20402;-66
2022/03/04 07:21:23;;;;;;;;;;;2.60;1.00;;;;;;5094008;28;19971;-67
2022/03/04 07:23:49;;;;;;;;;;;2.60;1.00;;;;;;5094997;28;19908;-67
2022/03/04 07:26:16;;;;;;;;;;;2.60;1.00;;;;;;5093671;28;19908;-67
2022/03/04 07:28:41;;;;;;;;;;;2.80;1.00;;;;;;5076505;28;19908;-67
2022/03/04 07:31:07;;;;;;;;;;;2.80;1.00;;;;;;5093690;28;19908;-67
2022/03/04 07:33:33;;;;;;;;;;;;;;;;;;5094179;28;20284;-67
2022/03/04 07:35:59;;;;;;;;;;;2.90;1.00;;;;;;5094460;28;20335;-67
2022/03/04 07:38:24;;;;;;;;;;;2.90;1.00;;;;;;5093644;28;19908;-67
2022/03/04 07:40:50;;;;;;;;;;;2.90;1.00;;;;;;5094403;28;19908;-67
2022/03/04 07:43:15;;;;;;;;;;;2.90;1.00;;;;;;5093563;28;19916;-67
2022/03/04 07:45:41;;;;;;;;;;;3.00;1.00;;;;;;5094319;28;19916;-67
2022/03/04 07:48:06;;;;;;;;;;;3.00;1.00;;;;;;5093473;28;19908;-68
2022/03/04 07:50:32;;;;;;;;;;;3.00;1.00;;;;;;5094194;28;19912;-67
2022/03/04 07:52:57;;;;;;;;;;;3.00;1.00;;;;;;5085578;28;20310;-67
2022/03/04 07:55:26;;;;;;;;;;;3.00;1.00;;;;;;5113614;28;20351;-67
2022/03/04 07:57:53;;;;;;;;;;;3.00;1.00;;;;;;5114479;28;19908;-67
2022/03/04 08:00:19;;;;;;;;;;;3.10;1.00;;;;;;5113830;28;19908;-67
2022/03/04 08:02:45;;;;;;;;;;;3.10;1.00;;;;;;5114318;28;19908;-67
2022/03/04 08:05:10;;;;;;;;;;;3.30;1.00;;;;;;5113818;28;20340;-67
2022/03/04 08:07:37;;;;;;;;;;;3.30;1.00;;;;;;5114187;28;19908;-68
2022/03/04 08:10:03;;;;;;;;;;;;;;;;;;5114203;28;19961;-71
2022/03/04 08:12:28;;;;;;;;;;;3.30;1.00;;;;;;5113988;28;19908;-67
2022/03/04 08:14:54;;;;;;;;;;;3.30;1.00;;;;;;5113968;28;20382;-67
2022/03/04 08:17:20;;;;;;;;;;;;;;;;;;5113488;28;20356;-67
2022/03/04 08:19:45;;;;;;;;;;;3.40;1.00;;;;;;5114080;28;19907;-67
2022/03/04 08:22:11;;;;;;;;;;;3.40;1.00;;;;;;5113058;28;19908;-67
2022/03/04 08:24:36;;;;;;;;;;;3.40;1.00;;;;;;5112957;28;19915;-68
2022/03/04 08:27:02;;;;;;;;;;;3.40;1.00;;;;;;5113005;28;19961;-68
2022/03/04 08:29:27;;;;;;;;;;;3.50;1.00;;;;;;5112606;28;19908;-68
2022/03/04 08:31:53;;;;;;;;;;;3.60;1.00;;;;;;5113133;28;20435;-68
2022/03/04 08:34:18;;;;;;;;;;;3.70;1.00;;;;;;5111951;28;20384;-68
2022/03/04 08:36:44;;;;;;;;;;;3.70;1.00;;;;;;5113512;28;20363;-68
2022/03/04 08:39:10;;;;;;;;;;;3.90;1.00;;;;;;5112589;28;19977;-68
2022/03/04 08:41:35;;;;;;;;;;;3.90;1.00;;;;;;5113907;28;19907;-68
2022/03/04 08:44:01;;;;;;;;;;;4.00;1.00;;;;;;5095087;28;20386;-68
2022/03/04 08:46:27;;;;;;;;;;;3.90;1.00;;;;;;5112804;28;19904;-68
2022/03/04 08:48:52;;;;;;;;;;;4.00;1.00;;;;;;5095373;28;19937;-68
2022/03/04 08:51:18;;;;;;;;;;;4.10;1.00;;;;;;5094561;28;20382;-68
2022/03/04 08:53:44;;;;;;;;;;;4.10;1.00;;;;;;5113314;28;19915;-68
2022/03/04 08:56:09;;;;;;;;;;;4.20;1.00;;;;;;5112563;28;19908;-69
2022/03/04 08:58:35;;;;;;;;;;;4.20;1.00;;;;;;5113458;28;19908;-69
2022/03/04 09:01:01;;;;;;;;;;;4.20;1.00;;;;;;5113321;28;20352;-67
2022/03/04 09:03:26;;;;;;;;;;;4.40;1.00;;;;;;5112033;28;19964;-65
2022/03/04 09:05:52;;;;;;;;;;;4.50;1.00;;;;;;5106920;28;20498;-65
2022/03/04 09:08:17;;;;;;;;;;;4.60;1.00;;;;;;5096238;28;20366;-67
2022/03/04 09:10:44;;;;;;;;;;;4.70;1.00;;;;;;5096637;28;19939;-69
2022/03/04 09:13:10;;;;;;;;;;;;;;;;;;5113392;28;20329;-71
2022/03/04 09:15:35;;;;;;;;;;;4.90;1.00;;;;;;5113227;28;19919;-68
2022/03/04 09:18:01;;;;;;;;;;;5.00;1.00;;;;;;5094973;28;19912;-68
2022/03/04 09:20:27;;;;;;;;;;;5.10;1.00;;;;;;5112396;28;19991;-68
2022/03/04 09:22:55;;;;;;;;;;;5.10;1.00;;;;;;5113213;28;20268;-68
2022/03/04 09:25:21;;;;;;;;;;;5.10;1.00;;;;;;5112404;28;20283;-68
2022/03/04 09:27:48;;;;;;;;;;;5.10;1.00;;;;;;5113038;28;19938;-68
2022/03/04 09:30:14;;;;;;;;;;;5.20;1.00;;;;;;5112176;28;19908;-68
2022/03/04 09:32:40;;;;;;;;;;;;;;;;;;5113096;28;20014;-68
2022/03/04 09:35:06;;;;;;;;;;;5.30;1.00;;;;;;5093973;28;19927;-68
2022/03/04 09:37:31;;;;;;;;;;;5.40;1.00;;;;;;5112214;28;20473;-68
2022/03/04 09:39:57;;;;;;;;;;;5.50;1.00;;;;;;5112873;28;20321;-68
2022/03/04 09:42:23;;;;;;;;;;;5.50;1.00;;;;;;5112490;28;19919;-69
2022/03/04 09:44:49;;;;;;;;;;;5.50;1.00;;;;;;5113107;28;19908;-66
2022/03/04 09:47:16;;;;;;;;;;;5.80;1.00;;;;;;5093649;28;20390;-68
2022/03/04 09:49:42;;;;;;;;;;;5.70;1.00;;;;;;5112767;28;20013;-66
2022/03/04 09:52:08;;;;;;;;;;;5.70;1.00;;;;;;5112506;28;19936;-68
2022/03/04 09:54:34;;;;;;;;;;;5.80;1.00;;;;;;5112060;28;20088;-68
2022/03/04 09:56:59;;;;;;;;;;;6.00;1.00;;;;;;5115623;28;20402;-66
2022/03/04 09:59:25;;;;;;;;;;;6.20;1.00;;;;;;5116007;28;19907;-66
2022/03/04 10:01:51;;;;;;;;;;;6.30;1.00;;;;;;5116908;28;19908;-67
2022/03/04 10:04:17;;;;;;;;;;;;;;;;;;5096361;28;19916;-67
2022/03/04 10:06:49;;;;;;;;;;;6.20;1.00;;;;;;5105703;28;19919;-70
2022/03/04 10:09:14;;;;;;;;;;;;;;;;;;5116121;28;19915;-70
2022/03/04 10:11:40;;;;;;;;;;;6.30;1.00;;;;;;5115768;28;19908;-70
2022/03/04 10:14:08;;;;;;;;;;;6.40;1.00;;;;;;5098094;28;20279;-70
2022/03/04 10:16:33;;;;;;;;;;;;;;;;;;5115485;28;19916;-70
2022/03/04 10:19:18;;;;;;;;;;;6.70;1.00;;;;;;5116368;28;19908;-70
2022/03/04 10:21:50;;;;;;;;;;;6.70;1.00;;;;;;5116411;28;19930;-70
2022/03/04 10:24:16;;;;;;;;;;;;;;;;;;5115794;28;19908;-71
2022/03/04 10:26:42;;;;;;;;;;;7.00;1.00;;;;;;5115793;28;19931;-71
2022/03/04 10:29:16;;;;;;;;;;;6.90;1.00;;;;;;5116195;28;19908;-71
2022/03/04 10:32:02;;;;;;;;;;;7.10;1.00;;;;;;5115879;28;20358;-72
2022/03/04 10:34:27;;;;;;;;;;;7.20;1.00;;;;;;5114714;28;19930;-71
2022/03/04 10:36:53;;;;;;;;;;;7.40;1.00;;;;;;5115862;28;20342;-70
2022/03/04 10:39:19;;;;;;;;;;;;;;;;;;5115190;28;19973;-71
2022/03/04 10:41:49;;;;;;;;;;;7.40;1.00;;;;;;5115880;28;19998;-71
2022/03/04 10:44:15;;;;;;;;;;;;;;;;;;5115928;28;19908;-71
2022/03/04 10:46:53;;;;;;;;;;;7.30;1.00;;;;;;5115234;28;19915;-70
2022/03/04 10:49:19;;;;;;;;;;;;;;;;;;5115135;28;20463;-71
2022/03/04 10:51:45;;;;;;;;;;;7.60;1.00;;;;;;5097438;28;19963;-70
2022/03/04 10:54:10;;;;;;;;;;;;;;;;;;5115590;28;19912;-70
2022/03/04 10:56:54;;;;;;;;;;;7.60;1.00;;;;;;5114893;28;20570;-70
2022/03/04 10:59:20;;;;;;;;;;;;;;;;;;5115007;28;20348;-71
2022/03/04 11:01:49;;;;;;;;;;;8.10;1.00;;;;;;5115560;28;19952;-71
2022/03/04 11:04:18;;;;;;;;;;;8.20;1.00;;;;;;5115459;28;19916;-71
2022/03/04 11:06:47;;;;;;;;;;;8.00;1.00;;;;;;5096158;28;19990;-71
2022/03/04 11:09:13;;;;;;;;;;;8.30;1.00;;;;;;5115205;28;19943;-71
2022/03/04 11:11:43;;;;;;;;;;;8.40;1.00;;;;;;5114585;28;19958;-70
2022/03/04 11:14:14;;;;;;;;;;;8.20;1.00;;;;;;5115187;28;19912;-70
2022/03/04 11:16:40;;;;;;;;;;;8.40;1.00;;;;;;5114579;28;19903;-70
2022/03/04 11:19:09;;;;;;;;;;;8.50;1.00;;;;;;5115209;28;19908;-70
2022/03/04 11:21:35;;;;;;;;;;;8.50;1.00;;;;;;5114382;28;19908;-71
2022/03/04 11:24:01;;;;;;;;;;;;;;;;;;5112002;28;19946;-71
2022/03/04 11:26:27;;;;;;;;;;;;;;;;;;5110750;28;19958;-68
2022/03/04 11:28:54;;;;;;;;;;;;;;;;;;5111727;28;19985;-71
2022/03/04 11:31:23;;;;;;;;;;;;;;;;;;5093284;28;19912;-68
2022/03/04 11:33:51;;;;;;;;;;;;;;;;;;5111893;28;19928;-68
2022/03/04 11:36:17;;;;;;;;;;;;;;;;;;5112220;28;20057;-70
2022/03/04 11:38:43;;;;;;;;;;;;;;;;;;5113045;28;20455;-69
2022/03/04 11:41:09;;;;;;;;;;;;;;;;;;5112243;28;19912;-69
2022/03/04 11:43:34;;;;;;;;;;;;;;;;;;5110664;28;20379;-69
2022/03/04 11:46:00;;;;;;;;;;;;;;;;;;5111466;28;19922;-69
2022/03/04 11:48:28;;;;;;;;;;;9.60;1.00;;;;;;5109995;28;20008;-70
2022/03/04 11:50:55;;;;;;;;;;;9.60;1.00;;;;;;5111358;28;19912;-69
2022/03/04 11:53:25;;;;;;;;;;;;;;;;;;5092831;28;19934;-70
2022/03/04 11:56:14;;;;;;;;;;;9.70;1.00;;;;;;5111075;28;20011;-69
2022/03/04 11:58:40;;;;;;;;;;;;;;;;;;5110272;28;19916;-69
2022/03/04 12:01:06;;;;;;;;;;;;;;;;;;5110596;28;19908;-69
2022/03/04 12:03:32;;;;;;;;;;;;;;;;;;5110256;28;20372;-69
2022/03/04 12:06:00;;;;;;;;;;;10.20;1.00;;;;;;5110730;28;19961;-69
2022/03/04 12:08:26;;;;;;;;;;;;;;;;;;5110156;28;19941;-70
2022/03/04 12:10:53;;;;;;;;;;;;;;;;;;5110756;28;19908;-70
2022/03/04 12:13:26;;;;;;;;;;;10.10;1.00;;;;;;5110418;28;20321;-69
2022/03/04 12:15:52;;;;;;;;;;;;;;;;;;5110703;28;20659;-69
2022/03/04 12:18:18;;;;;;;;;;;10.50;1.00;;;;;;5109915;28;19908;-69
2022/03/04 12:20:44;;;;;;;;;;;;;;;;;;5109912;28;19991;-69
2022/03/04 12:23:10;;;;;;;;;;;;;;;;;;5110449;28;20379;-69
2022/03/04 12:25:36;;;;;;;;;;;;;;;;;;5110073;28;19907;-69
2022/03/04 12:28:01;;;;;;;;;;;;;;;;;;5110442;28;20026;-69
2022/03/04 12:30:27;;;;;;;;;;;;;;;;;;5109650;28;19912;-69
2022/03/04 12:32:53;;;;;;;;;;;;;;;;;;5110437;28;20166;-69
2022/03/04 12:35:20;;;;;;;;;;;10.70;1.00;;;;;;5109439;28;19967;-69
2022/03/04 12:37:46;;;;;;;;;;;;;;;;;;5109667;28;19907;-69
2022/03/04 12:40:12;;;;;;;;;;;;;;;;;;5110348;28;19919;-69
2022/03/04 12:42:38;;;;;;;;;;;;;;;;;;5109734;28;19957;-69
2022/03/04 12:45:10;;;;;;;;;;;11.20;1.00;;;;;;5110217;28;20343;-69
2022/03/04 12:47:36;;;;;;;;;;;11.10;1.00;;;;;;5108875;28;19912;-69
2022/03/04 12:50:02;;;;;;;;;;;;;;;;;;5110355;28;19918;-69
2022/03/04 12:52:28;;;;;;;;;;;;;;;;;;5109527;28;20002;-69
2022/03/04 12:54:53;;;;;;;;;;;;;;;;;;5109778;28;20364;-69
2022/03/04 12:57:23;;;;;;;;;;;;;;;;;;5109959;28;19912;-69
2022/03/04 12:59:49;;;;;;;;;;;;;;;;;;5090420;28;20564;-70
2022/03/04 13:02:15;;;;;;;;;;;;;;;;;;5091546;28;19943;-70
2022/03/04 13:04:42;;;;;;;;;;;;;;;;;;5109171;28;20014;-69
2022/03/04 13:07:08;;;;;;;;;;;;;;;;;;5109806;28;20322;-70
2022/03/04 13:09:33;;;;;;;;;;;11.60;1.00;;;;;;5108987;28;20014;-70
2022/03/04 13:11:59;;;;;;;;;;;;;;;;;;5105620;28;19922;-70
2022/03/04 13:14:25;;;;;;;;;;;;;;;;;;5111540;28;19912;-70
2022/03/04 13:16:51;;;;;;;;;;;;;;;;;;5108383;28;20011;-71
2022/03/04 13:19:17;;;;;;;;;;;;;;;;;;5109725;28;19915;-69
2022/03/04 13:21:43;;;;;;;;;;;;;;;;;;5089955;28;19912;-68
2022/03/04 13:24:09;;;;;;;;;;;;;;;;;;5089270;28;19962;-69
2022/03/04 13:26:36;;;;;;;;;;;;;;;;;;5088437;28;20360;-65
2022/03/04 13:29:03;;;;;;;;;;;13.30;1.00;;;;;;5092314;28;19913;-69
2022/03/04 13:31:29;;;;;;;;;;;;;;;;;;5098890;28;19916;-68
2022/03/04 13:33:55;;;;;;;;;;;;;;;;;;5088483;28;19927;-69
2022/03/04 13:36:36;;;;;;;;;;;12.80;1.00;;;;;;5095719;28;20312;-70
2022/03/04 13:39:02;;;;;;;;;;;;;;;;;;5088459;28;20002;-69
2022/03/04 13:41:28;;;;;;;;;;;;;;;;;;5096980;28;20404;-70
2022/03/04 13:44:04;;;;;;;;;;;13.10;1.00;;;;;;5100369;28;20364;-69
2022/03/04 13:46:29;;;;;;;;;;;;;;;;;;5096519;28;19980;-69
2022/03/04 13:49:04;;;;;;;;;;;13.20;1.00;;;;;;5112503;28;19911;-68
2022/03/04 13:51:29;;;;;;;;;;;;;;;;;;5095381;28;20280;-70
2022/03/04 13:53:59;;;;;;;;;;;13.30;1.00;;;;;;5112312;28;19908;-68
2022/03/04 13:56:25;;;;;;;;;;;13.30;1.00;;;;;;5112554;28;19957;-68
2022/03/04 13:58:51;;;;;;;;;;;;;;;;;;5111434;28;19939;-67
2022/03/04 14:01:20;;;;;;;;;;;13.60;1.00;;;;;;5112558;28;20002;-67
2022/03/04 14:03:49;;;;;;;;;;;13.90;1.00;;;;;;5111765;28;19950;-68
2022/03/04 14:06:15;;;;;;;;;;;;;;;;;;5094010;28;19914;-67
2022/03/04 14:08:40;;;;;;;;;;;13.80;1.00;;;;;;5111748;28;19912;-67
2022/03/04 14:11:07;;;;;;;;;;;14.30;1.00;;;;;;5094178;28;19908;-67
2022/03/04 14:13:34;;;;;;;;;;;;;;;;;;5111607;28;20006;-70
2022/03/04 14:16:00;;;;;;;;;;;13.90;1.00;;;;;;5112358;28;19911;-67
2022/03/04 14:18:26;;;;;;;;;;;14.30;1.00;;;;;;5112328;28;20386;-67
2022/03/04 14:20:52;;;;;;;;;;;14.60;1.00;;;;;;5111564;28;20013;-67
2022/03/04 14:23:18;;;;;;;;;;;14.30;1.00;;;;;;5112288;28;19908;-67
2022/03/04 14:25:44;;;;;;;;;;;14.50;1.00;;;;;;5111407;28;19918;-67
2022/03/04 14:28:11;;;;;;;;;;;14.90;1.00;;;;;;5112255;28;20003;-67
2022/03/04 14:30:40;;;;;;;;;;;14.80;1.00;;;;;;5111532;28;19908;-68
2022/03/04 14:33:06;;;;;;;;;;;15.00;1.00;;;;;;5112452;28;19915;-67
2022/03/04 14:35:32;;;;;;;;;;;;;;;;;;5111553;28;19924;-69
2022/03/04 14:37:58;;;;;;;;;;;14.60;1.00;;;;;;5111849;28;19950;-68
2022/03/04 14:40:24;;;;;;;;;;;;;;;;;;5110115;28;19946;-67
2022/03/04 14:42:51;;;;;;;;;;;15.10;1.00;;;;;;5110451;28;19908;-67
2022/03/04 14:45:17;;;;;;;;;;;15.20;1.00;;;;;;5115146;28;19914;-67
2022/03/04 14:47:44;;;;;;;;;;;15.10;1.00;;;;;;5115036;28;19912;-68
2022/03/04 14:50:10;;;;;;;;;;;13.90;1.00;;;;;;5115804;28;19938;-67
2022/03/04 14:52:36;;;;;;;;;;;14.90;1.00;;;;;;5114939;28;19914;-67
2022/03/04 14:55:02;;;;;;;;;;;15.00;1.00;;;;;;5113197;28;20447;-71
2022/03/04 14:57:28;;;;;;;;;;;14.40;1.00;;;;;;5094884;28;19934;-71
2022/03/04 14:59:54;;;;;;;;;;;13.90;1.00;;;;;;5094453;28;19912;-71
2022/03/04 15:02:20;;;;;;;;;;;14.20;1.00;;;;;;5095039;28;20420;-72
2022/03/04 15:04:45;;;;;;;;;;;13.90;1.00;;;;;;5076352;28;19923;-73
2022/03/04 15:07:11;;;;;;;;;;;13.70;1.00;;;;;;5109164;28;19914;-72
2022/03/04 15:09:37;;;;;;;;;;;14.70;1.00;;;;;;5114616;28;19907;-72
2022/03/04 15:12:03;;;;;;;;;;;13.80;1.00;;;;;;5097032;28;20283;-72
2022/03/04 15:14:29;;;;;;;;;;;;;;;;;;5115207;28;19912;-72
2022/03/04 15:17:02;;;;;;;;;;;14.00;1.00;;;;;;5114511;28;19930;-72
2022/03/04 15:19:32;;;;;;;;;;;14.50;1.00;;;;;;5097043;28;20379;-73
2022/03/04 15:21:58;;;;;;;;;;;15.10;1.00;;;;;;5114575;28;19914;-73
2022/03/04 15:24:24;;;;;;;;;;;14.40;1.00;;;;;;5115156;28;19998;-73
2022/03/04 15:26:49;;;;;;;;;;;13.70;1.00;;;;;;5114248;28;19989;-72
2022/03/04 15:29:15;;;;;;;;;;;13.70;1.00;;;;;;5115040;28;19912;-72
2022/03/04 15:31:41;;;;;;;;;;;13.90;1.00;;;;;;5114225;28;20256;-73
2022/03/04 15:34:06;;;;;;;;;;;14.40;1.00;;;;;;5114563;28;20390;-73
2022/03/04 15:36:32;;;;;;;;;;;14.70;1.00;;;;;;5096474;28;19915;-73
2022/03/04 15:38:58;;;;;;;;;;;14.80;1.00;;;;;;5114076;28;20367;-72
2022/03/04 15:41:23;;;;;;;;;;;14.80;1.00;;;;;;5096634;28;19915;-73
2022/03/04 15:43:49;;;;;;;;;;;14.80;1.00;;;;;;5113895;28;19930;-73
2022/03/04 15:46:14;;;;;;;;;;;14.30;1.00;;;;;;5114742;28;19907;-72
2022/03/04 15:48:40;;;;;;;;;;;14.60;1.00;;;;;;5113942;28;19976;-73
2022/03/04 15:51:06;;;;;;;;;;;15.10;1.00;;;;;;5114628;28;19915;-73
2022/03/04 15:53:31;;;;;;;;;;;14.40;1.00;;;;;;5114585;28;19908;-73
2022/03/04 15:55:58;;;;;;;;;;;14.40;1.00;;;;;;5113699;28;20005;-73
2022/03/04 15:58:24;;;;;;;;;;;14.50;1.00;;;;;;5114572;28;20360;-73
2022/03/04 16:00:50;;;;;;;;;;;14.10;1.00;;;;;;5113680;28;19907;-73
2022/03/04 16:03:16;;;;;;;;;;;14.30;1.00;;;;;;5114373;28;19908;-72
2022/03/04 16:05:42;;;;;;;;;;;14.10;1.00;;;;;;5113592;28;19966;-72
2022/03/04 16:08:07;;;;;;;;;;;14.30;1.00;;;;;;5094018;28;19940;-72
2022/03/04 16:10:33;;;;;;;;;;;13.90;1.00;;;;;;5093891;28;20292;-71
2022/03/04 16:12:58;;;;;;;;;;;13.80;1.00;;;;;;5093062;28;20773;-71
2022/03/04 16:15:24;;;;;;;;;;;13.10;1.00;;;;;;5093604;28;20284;-71
2022/03/04 16:17:49;;;;;;;;;;;13.50;1.00;;;;;;5093195;28;20356;-72
2022/03/04 16:20:15;;;;;;;;;;;13.50;1.00;;;;;;5075579;28;19909;-71
2022/03/04 16:22:41;;;;;;;;;;;13.60;1.00;;;;;;5092840;28;19947;-72
2022/03/04 16:25:07;;;;;;;;;;;13.30;1.00;;;;;;5093600;28;19916;-72
2022/03/04 16:27:33;;;;;;;;;;;13.40;1.00;;;;;;5093498;28;19908;-71
2022/03/04 16:29:58;;;;;;;;;;;13.50;1.00;;;;;;5074564;28;19904;-70
2022/03/04 16:32:24;;;;;;;;;;;12.90;1.00;;;;;;5093449;28;20048;-70
2022/03/04 16:34:50;;;;;;;;;;;13.00;1.00;;;;;;5092323;28;19928;-71